createdAt,value
2019-05-10T04:43:00.207Z,2.10
2019-05-10T04:45:29.891Z,2.20
2019-05-10T04:47:59.400Z,1.60
2019-05-10T04:50:28.649Z,1.80
2019-05-10T04:52:57.965Z,1.70
2019-05-10T04:55:27.396Z,1.60
2019-05-10T04:57:56.624Z,1.80
2019-05-10T05:00:25.968Z,1.70
2019-05-10T05:02:57.965Z,2.07
2019-05-10T05:05:27.204Z,1.60
2019-05-10T05:07:56.483Z,1.50
2019-05-10T05:10:25.737Z,1.60
2019-05-10T05:12:54.922Z,1.80
2019-05-10T05:15:24.273Z,1.60
2019-05-10T05:17:53.525Z,1.70
2019-05-10T05:20:22.817Z,1.73
2019-05-10T05:22:52.008Z,1.70
2019-05-10T05:25:22.146Z,1.60
2019-05-10T05:28:06.664Z,1.60
2019-05-10T05:30:23.157Z,1.63
2019-05-10T05:32:52.483Z,1.63
2019-05-10T05:35:21.835Z,1.60
2019-05-10T05:37:53.780Z,1.67
2019-05-10T05:40:22.997Z,1.80
2019-05-10T05:42:52.367Z,1.93
2019-05-10T05:45:21.716Z,1.70
2019-05-10T05:47:51.148Z,1.87
2019-05-10T05:50:20.375Z,2.20
2019-05-10T05:52:49.637Z,1.50
2019-05-10T05:55:22.776Z,1.30
2019-05-10T05:57:50.646Z,1.63
2019-05-10T06:00:19.834Z,1.47
2019-05-10T06:02:49.120Z,1.53
2019-05-10T06:05:32.908Z,1.40
2019-05-10T06:07:52.087Z,2.17
2019-05-10T06:10:20.219Z,1.10
2019-05-10T06:12:50.683Z,1.30
2019-05-10T06:15:28.773Z,0.90
2019-05-10T06:17:57.054Z,1.30
2019-05-10T06:20:25.006Z,1.30
2019-05-10T06:23:06.257Z,1.20
2019-05-10T06:25:38.811Z,1.40
2019-05-10T06:27:58.614Z,1.13
2019-05-10T06:30:28.071Z,1.70
2019-05-10T06:33:00.992Z,1.50
2019-05-10T06:35:28.259Z,1.63
2019-05-10T06:37:57.435Z,1.60
2019-05-10T06:40:35.746Z,1.40
2019-05-10T06:42:57.695Z,1.43
2019-05-10T06:45:26.906Z,1.30
2019-05-10T06:47:56.233Z,1.53
2019-05-10T06:50:30.148Z,1.30
2019-05-10T06:53:00.768Z,1.20
2019-05-10T06:55:27.565Z,1.53
2019-05-10T06:58:00.502Z,1.33
2019-05-10T07:00:28.115Z,1.23
2019-05-10T07:02:57.364Z,1.50
2019-05-10T07:05:27.236Z,1.40
2019-05-10T07:08:00.505Z,1.30
2019-05-10T07:10:27.435Z,1.40
2019-05-10T07:13:02.963Z,1.60
2019-05-10T07:15:27.563Z,1.50
2019-05-10T07:17:56.719Z,1.60
2019-05-10T07:20:29.509Z,1.60
2019-05-10T07:23:00.033Z,1.50
2019-05-10T07:25:31.165Z,1.67
2019-05-10T07:28:00.457Z,1.50
2019-05-10T07:30:34.975Z,1.37
2019-05-10T07:33:04.594Z,1.30
2019-05-10T07:35:38.633Z,1.60
2019-05-10T07:38:07.919Z,2.83
2019-05-10T07:40:37.295Z,2.00
2019-05-10T07:43:06.502Z,1.93
2019-05-10T07:45:35.950Z,1.80
2019-05-10T07:48:08.422Z,1.30
2019-05-10T07:50:36.532Z,1.30
2019-05-10T07:53:05.779Z,1.60
2019-05-10T07:55:34.951Z,1.40
2019-05-10T07:58:04.932Z,1.20
2019-05-10T08:00:37.995Z,1.40
2019-05-10T08:03:15.206Z,1.30
2019-05-10T08:05:39.114Z,1.13
2019-05-10T08:08:09.547Z,1.20
2019-05-10T08:10:39.923Z,1.30
2019-05-10T08:13:09.142Z,0.97
2019-05-10T08:15:38.614Z,0.97
2019-05-10T08:18:09.878Z,0.80
2019-05-10T08:20:49.646Z,0.77
2019-05-10T08:23:10.135Z,0.90
2019-05-10T08:25:46.695Z,0.60
2019-05-10T08:28:12.698Z,0.80
2019-05-10T08:30:51.722Z,0.77
2019-05-10T08:33:15.171Z,0.80
2019-05-10T08:35:46.445Z,0.70
2019-05-10T08:38:15.389Z,0.60
2019-05-10T08:40:44.624Z,0.60
2019-05-10T08:43:16.621Z,0.70
2019-05-10T08:45:49.216Z,0.43
2019-05-10T08:48:16.421Z,0.70
2019-05-10T08:50:55.202Z,0.60
2019-05-10T08:53:16.884Z,0.60
2019-05-10T08:55:52.286Z,0.60
2019-05-10T09:01:19.030Z,0.70
2019-05-10T09:03:38.475Z,0.60
2019-05-10T09:06:11.967Z,0.83
2019-05-10T09:08:38.923Z,0.60
2019-05-10T09:11:08.120Z,0.70
2019-05-10T09:13:41.131Z,0.73
2019-05-10T09:16:08.316Z,0.70
2019-05-10T09:18:46.775Z,0.80
2019-05-10T09:21:14.323Z,0.70
2019-05-10T09:23:43.318Z,0.83
2019-05-10T09:26:16.394Z,1.10
2019-05-10T09:28:47.497Z,1.33
2019-05-10T09:31:20.856Z,1.27
2019-05-10T09:33:49.534Z,1.10
2019-05-10T09:36:23.135Z,1.20
2019-05-10T09:38:48.912Z,1.40
2019-05-10T09:41:18.463Z,1.20
2019-05-10T09:43:49.143Z,1.30
2019-05-10T09:46:19.187Z,1.40
2019-05-10T09:48:53.557Z,1.27
2019-05-10T09:51:25.493Z,1.20
2019-05-10T09:53:51.642Z,1.50
2019-05-10T09:56:20.933Z,1.30
2019-05-10T09:58:50.101Z,1.40
2019-05-10T10:01:21.980Z,1.40
2019-05-10T10:03:51.182Z,1.43
2019-05-10T10:06:29.553Z,1.60
2019-05-10T10:08:57.740Z,1.40
2019-05-10T10:11:28.184Z,1.50
2019-05-10T10:13:59.990Z,1.40
2019-05-10T10:16:28.483Z,1.80
2019-05-10T10:18:58.227Z,1.70
2019-05-10T10:21:34.909Z,1.23
2019-05-10T10:24:12.724Z,1.00
2019-05-10T10:26:34.332Z,2.40
2019-05-10T10:29:03.568Z,6.30
2019-05-10T10:31:39.146Z,2.20
2019-05-10T10:34:07.218Z,2.13
2019-05-10T10:36:40.113Z,2.10
2019-05-10T10:39:07.914Z,1.60
2019-05-10T10:41:37.122Z,1.10
2019-05-10T10:44:08.419Z,1.17
2019-05-10T10:46:37.223Z,1.37
2019-05-10T10:49:06.595Z,1.23
2019-05-10T10:51:37.780Z,1.60
2019-05-10T10:54:07.366Z,1.53
2019-05-10T10:56:42.239Z,1.60
2019-05-10T10:59:12.940Z,1.50
2019-05-10T11:01:49.967Z,1.40
2019-05-10T11:04:16.503Z,1.50
2019-05-10T11:06:45.804Z,1.73
2019-05-10T11:09:15.132Z,1.60
2019-05-10T11:11:44.956Z,1.90
2019-05-10T11:14:14.709Z,1.80
2019-05-10T11:16:46.760Z,2.10
2019-05-10T11:19:15.837Z,1.43
2019-05-10T11:21:45.389Z,1.50
2019-05-10T11:24:18.247Z,1.07
2019-05-10T11:26:45.694Z,1.43
2019-05-10T11:29:25.513Z,1.10
2019-05-10T11:31:50.207Z,1.10
2019-05-10T11:34:18.635Z,1.03
2019-05-10T11:36:48.377Z,1.23
2019-05-10T11:39:26.040Z,1.10
2019-05-10T11:41:52.798Z,1.23
2019-05-10T11:44:22.021Z,1.30
2019-05-10T11:46:51.614Z,1.27
2019-05-10T11:49:20.957Z,1.27
2019-05-10T11:51:54.817Z,1.10
2019-05-10T11:54:21.687Z,1.20
2019-05-10T11:56:52.250Z,1.20
2019-05-10T11:59:27.452Z,1.10
2019-05-10T12:01:58.031Z,1.20
2019-05-10T12:04:36.230Z,1.20
2019-05-10T12:06:55.672Z,1.27
2019-05-10T12:09:27.995Z,1.23
2019-05-10T12:11:57.492Z,1.10
2019-05-10T12:14:26.815Z,1.30
2019-05-10T12:16:56.136Z,1.10
2019-05-10T12:19:25.515Z,0.80
2019-05-10T12:21:55.990Z,0.90
2019-05-10T12:24:38.769Z,0.80
2019-05-10T12:29:27.915Z,1.17
2019-05-10T12:31:57.292Z,1.10
2019-05-10T12:34:27.675Z,1.30
2019-05-10T12:36:57.536Z,0.70
2019-05-10T12:39:28.094Z,1.37
2019-05-10T12:41:57.492Z,1.20
2019-05-10T12:44:26.836Z,1.07
2019-05-10T12:46:56.235Z,1.17
2019-05-10T12:49:25.524Z,0.80
2019-05-10T12:51:54.858Z,0.73
2019-05-10T12:54:31.505Z,0.80
2019-05-10T12:57:02.804Z,0.80
2019-05-10T12:59:34.868Z,0.70
2019-05-10T13:02:04.551Z,0.93
2019-05-10T13:04:40.527Z,0.83
2019-05-10T13:07:05.155Z,0.80
2019-05-10T13:09:40.385Z,2.00
2019-05-10T13:12:06.419Z,1.10
2019-05-10T13:14:40.215Z,1.20
2019-05-10T13:17:09.929Z,1.10
2019-05-10T13:19:40.112Z,1.17
2019-05-10T13:22:09.645Z,1.10
2019-05-10T13:24:39.039Z,1.30
2019-05-10T13:27:08.346Z,1.60
2019-05-10T13:29:40.641Z,1.57
2019-05-10T13:32:08.671Z,1.50
2019-05-10T13:34:37.893Z,2.03
2019-05-10T13:37:07.101Z,1.30
2019-05-10T13:39:36.410Z,1.20
2019-05-10T13:42:09.509Z,1.40
2019-05-10T13:44:37.159Z,1.00
2019-05-10T13:47:08.010Z,1.00
2019-05-10T13:49:37.284Z,1.00
2019-05-10T13:52:07.676Z,0.80
2019-05-10T13:54:37.983Z,0.80
2019-05-10T13:57:07.847Z,1.00
2019-05-10T13:59:37.291Z,1.80
2019-05-10T14:02:06.988Z,1.57
2019-05-10T14:04:38.615Z,1.20
2019-05-10T14:07:10.261Z,1.10
2019-05-10T14:09:39.732Z,1.10
2019-05-10T14:12:09.215Z,1.10
2019-05-10T14:14:38.519Z,1.13
2019-05-10T14:17:08.030Z,0.87
2019-05-10T14:19:37.318Z,1.10
2019-05-10T14:22:06.676Z,1.00
2019-05-10T14:24:36.125Z,1.50
2019-05-10T14:27:05.651Z,1.03
2019-05-10T14:29:36.929Z,1.33
2019-05-10T14:32:06.664Z,1.10
2019-05-10T14:34:37.911Z,1.00
2019-05-10T14:37:06.992Z,1.30
2019-05-10T14:39:36.805Z,1.07
2019-05-10T14:42:09.305Z,1.20
2019-05-10T14:44:38.613Z,1.20
2019-05-10T14:47:10.941Z,0.93
2019-05-10T14:49:42.127Z,1.33
2019-05-10T14:52:10.542Z,6.10
2019-05-10T14:54:43.536Z,21.20
2019-05-10T14:57:11.307Z,9.03
2019-05-10T14:59:41.084Z,7.17
2019-05-10T15:02:10.390Z,2.00
2019-05-10T15:04:45.027Z,1.80
2019-05-10T15:07:14.372Z,1.20
2019-05-10T15:09:41.795Z,3.77
2019-05-10T15:12:16.336Z,4.00
2019-05-10T15:14:42.609Z,1.30
2019-05-10T15:17:12.131Z,1.70
2019-05-10T15:19:41.441Z,1.00
2019-05-10T15:22:10.978Z,0.97
2019-05-10T15:24:40.460Z,1.27
2019-05-10T15:27:09.746Z,1.00
2019-05-10T15:29:39.259Z,0.90
2019-05-10T15:32:08.795Z,1.10
2019-05-10T15:34:38.205Z,0.90
2019-05-10T15:37:10.634Z,1.10
2019-05-10T15:39:39.216Z,0.73
2019-05-10T15:42:08.590Z,0.93
2019-05-10T15:44:37.931Z,0.87
2019-05-10T15:47:14.414Z,0.90
2019-05-10T15:49:38.615Z,0.90
2019-05-10T15:52:17.570Z,1.10
2019-05-10T15:54:44.630Z,1.10
2019-05-10T15:57:14.519Z,0.90
2019-05-10T15:59:41.562Z,1.00
2019-05-10T16:02:11.476Z,1.30
2019-05-10T16:04:40.965Z,1.70
2019-05-10T16:07:14.591Z,1.20
2019-05-10T16:09:41.318Z,0.97
2019-05-10T16:12:10.914Z,0.80
2019-05-10T16:14:41.221Z,1.10
2019-05-10T16:17:17.614Z,1.23
2019-05-10T16:19:42.295Z,1.27
2019-05-10T16:22:11.845Z,1.47
2019-05-10T16:24:41.188Z,1.70
2019-05-10T16:27:12.316Z,2.50
2019-05-10T16:29:41.669Z,2.80
2019-05-10T16:32:10.984Z,2.40
2019-05-10T16:34:40.369Z,2.63
2019-05-10T16:37:09.767Z,2.40
2019-05-10T16:39:39.617Z,2.77
2019-05-10T16:42:08.943Z,3.23
2019-05-10T16:44:38.286Z,3.03
2019-05-10T16:47:07.638Z,5.33
2019-05-10T16:49:37.168Z,3.43
2019-05-10T16:52:06.463Z,2.30
2019-05-10T16:54:35.859Z,2.00
2019-05-10T16:57:05.295Z,2.17
2019-05-10T16:59:35.334Z,1.70
2019-05-10T17:02:06.633Z,2.00
2019-05-10T17:04:37.468Z,2.60
2019-05-10T17:07:07.264Z,2.03
2019-05-10T17:09:37.352Z,1.80
2019-05-10T17:12:06.678Z,1.70
2019-05-10T17:14:36.279Z,2.00
2019-05-10T17:17:05.595Z,1.77
2019-05-10T17:19:36.162Z,1.90
2019-05-10T17:22:06.299Z,1.60
2019-05-10T17:24:35.635Z,1.90
2019-05-10T17:27:04.991Z,1.90
2019-05-10T17:29:34.360Z,1.80
2019-05-10T17:32:03.870Z,1.47
2019-05-10T17:34:33.165Z,1.80
2019-05-10T17:37:02.488Z,1.83
2019-05-10T17:39:34.552Z,1.60
2019-05-10T17:42:05.854Z,1.80
2019-05-10T17:44:36.996Z,1.77
2019-05-10T17:47:06.609Z,2.47
2019-05-10T17:49:35.905Z,2.30
2019-05-10T17:52:05.581Z,2.10
2019-05-10T17:54:39.147Z,2.00
2019-05-10T17:57:10.584Z,1.80
2019-05-10T17:59:37.722Z,1.93
2019-05-10T18:02:07.150Z,1.93
2019-05-10T18:04:36.948Z,1.67
2019-05-10T18:07:09.863Z,1.60
2019-05-10T18:09:39.100Z,1.60
2019-05-10T18:12:08.719Z,1.47
2019-05-10T18:14:38.004Z,1.60
2019-05-10T18:17:10.090Z,2.10
2019-05-10T18:19:39.436Z,1.60
2019-05-10T18:22:08.721Z,1.57
2019-05-10T18:24:42.200Z,1.60
2019-05-10T18:27:11.099Z,1.70
2019-05-10T18:29:40.933Z,1.70
2019-05-10T18:32:11.114Z,1.57
2019-05-10T18:34:40.890Z,1.83
2019-05-10T18:37:10.584Z,1.77
2019-05-10T18:39:39.930Z,1.83
2019-05-10T18:42:09.643Z,2.00
2019-05-10T18:44:39.339Z,2.50
2019-05-10T18:47:08.954Z,5.77
2019-05-10T18:49:38.391Z,6.27
2019-05-10T18:52:07.881Z,4.10
2019-05-10T18:54:38.598Z,3.00
2019-05-10T18:57:11.588Z,2.80
2019-05-10T18:59:45.432Z,2.80
2019-05-10T19:02:11.869Z,2.50
2019-05-10T19:04:45.755Z,2.50
2019-05-10T19:07:18.203Z,2.73
2019-05-10T19:09:48.587Z,2.73
2019-05-10T19:12:19.191Z,2.40
2019-05-10T19:14:49.359Z,2.60
2019-05-10T19:17:20.321Z,2.67
2019-05-10T19:19:49.829Z,2.63
2019-05-10T19:22:19.434Z,2.80
2019-05-10T19:24:48.876Z,2.50
2019-05-10T19:27:18.598Z,2.80
2019-05-10T19:29:48.137Z,2.77
2019-05-10T19:32:18.776Z,3.20
2019-05-10T19:34:57.292Z,3.37
2019-05-10T19:37:31.489Z,3.73
2019-05-10T19:39:53.675Z,3.13
2019-05-10T19:42:23.040Z,3.30
2019-05-10T19:44:52.611Z,3.03
2019-05-10T19:47:22.280Z,3.17
2019-05-10T19:49:53.363Z,3.43
2019-05-10T19:52:26.037Z,3.07
2019-05-10T19:54:53.947Z,4.20
2019-05-10T19:57:23.647Z,3.47
2019-05-10T19:59:53.204Z,3.50
2019-05-10T20:02:22.492Z,3.57
2019-05-10T20:04:51.717Z,3.40
2019-05-10T20:07:20.939Z,5.20
2019-05-10T20:09:50.244Z,8.10
2019-05-10T20:12:19.406Z,6.33
2019-05-10T20:14:48.762Z,7.40
2019-05-10T20:17:20.465Z,7.77
2019-05-10T20:19:50.087Z,9.03
2019-05-10T20:22:19.413Z,8.23
2019-05-10T20:24:48.644Z,7.53
2019-05-10T20:27:17.925Z,7.40
2019-05-10T20:29:47.527Z,6.50
2019-05-10T20:32:16.770Z,5.23
2019-05-10T20:34:45.973Z,5.43
2019-05-10T20:37:15.202Z,4.97
2019-05-10T20:39:44.492Z,4.60
2019-05-10T20:42:14.196Z,4.40
2019-05-10T20:44:43.629Z,4.70
2019-05-10T20:47:12.905Z,5.07
2019-05-10T20:49:42.188Z,5.30
2019-05-10T20:52:13.851Z,5.03
2019-05-10T20:54:43.386Z,4.70
2019-05-10T20:57:12.666Z,4.40
2019-05-10T20:59:42.195Z,3.97
2019-05-10T21:02:13.231Z,4.07
2019-05-10T21:04:42.519Z,3.63
2019-05-10T21:07:11.858Z,3.60
2019-05-10T21:09:41.280Z,3.40
2019-05-10T21:12:10.486Z,3.50
2019-05-10T21:14:39.770Z,3.10
2019-05-10T21:17:09.044Z,3.40
2019-05-10T21:19:38.212Z,3.70
2019-05-10T21:22:07.487Z,3.40
2019-05-10T21:24:36.745Z,3.50
2019-05-10T21:27:06.268Z,3.17
2019-05-10T21:29:35.722Z,3.37
2019-05-10T21:32:05.906Z,3.63
2019-05-10T21:34:35.842Z,3.90
2019-05-10T21:37:05.237Z,4.27
2019-05-10T21:39:34.642Z,4.50
2019-05-10T21:42:04.922Z,9.57
2019-05-10T21:44:34.132Z,8.50
2019-05-10T21:47:03.492Z,8.50
2019-05-10T21:49:53.258Z,7.63
2019-05-10T21:52:22.637Z,6.43
2019-05-10T21:54:53.350Z,5.30
2019-05-10T21:57:22.605Z,4.40
2019-05-10T21:59:53.054Z,4.40
